Time;durP1;ratioP1;P1;durP2;ratioP2;P2;SDS_P1;SDS_P2;PMS_P1;PMS_P2;Temp;Humidity;BMP_temperature;BMP_pressure;BME280_temperature;BME280_humidity;BME280_pressure;Samples;Min_cycle;Max_cycle;Signal;HPM_P1;HPM_P2
2023/10/27 00:01:14;;;;;;;29.30;19.75;;;12.80;83.00;;;;;;5079161;28;20041;-67
2023/10/27 00:03:40;;;;;;;29.30;19.10;;;12.80;83.00;;;;;;5081964;28;20074;-67
2023/10/27 00:06:06;;;;;;;30.73;17.88;;;12.80;83.10;;;;;;5078506;28;20020;-67
2023/10/27 00:08:32;;;;;;;29.70;18.75;;;12.80;83.10;;;;;;5074992;28;20051;-67
2023/10/27 00:11:04;;;;;;;31.08;19.60;;;12.80;83.20;;;;;;5084125;28;20123;-67
2023/10/27 00:13:29;;;;;;;32.83;19.60;;;12.80;83.20;;;;;;5074720;28;20025;-67
2023/10/27 00:15:55;;;;;;;31.33;19.75;;;12.80;83.20;;;;;;5075232;28;20392;-67
2023/10/27 00:18:21;;;;;;;32.22;19.17;;;12.80;83.20;;;;;;5099724;27;20353;-67
2023/10/27 00:20:47;;;;;;;35.25;21.73;;;12.80;83.20;;;;;;5075924;28;20109;-68
2023/10/27 00:23:12;;;;;;;32.15;19.92;;;12.80;83.20;;;;;;5063389;28;20042;-67
2023/10/27 00:25:38;;;;;;;36.40;19.80;;;12.80;83.30;;;;;;5074007;28;20020;-67
2023/10/27 00:28:04;;;;;;;33.60;20.08;;;12.80;83.30;;;;;;5077547;28;20067;-67
2023/10/27 00:30:30;;;;;;;31.65;20.27;;;12.80;83.30;;;;;;5077136;28;20467;-67
2023/10/27 00:32:55;;;;;;;34.45;20.75;;;12.80;83.40;;;;;;5093747;28;20024;-67
2023/10/27 00:35:22;;;;;;;32.22;19.55;;;12.80;83.40;;;;;;5090719;28;20058;-67
2023/10/27 00:37:47;;;;;;;34.85;20.65;;;12.90;83.40;;;;;;5087580;28;20100;-67
2023/10/27 00:40:13;;;;;;;37.45;20.25;;;12.80;83.40;;;;;;5091087;28;20420;-67
2023/10/27 00:42:41;;;;;;;35.53;21.30;;;12.90;83.50;;;;;;5090368;28;20034;-67
2023/10/27 00:45:07;;;;;;;36.85;22.00;;;12.90;83.50;;;;;;5093979;28;20124;-67
2023/10/27 00:47:33;;;;;;;37.78;21.67;;;12.90;83.50;;;;;;5075205;28;20464;-67
2023/10/27 00:50:00;;;;;;;36.83;21.75;;;12.90;83.60;;;;;;5093870;28;20294;-67
2023/10/27 00:52:27;;;;;;;36.10;22.23;;;12.90;83.60;;;;;;5093161;28;20036;-67
2023/10/27 00:54:54;;;;;;;34.38;21.15;;;12.90;83.60;;;;;;5093266;28;20043;-67
2023/10/27 00:57:22;;;;;;;37.72;22.40;;;12.90;83.70;;;;;;5110946;28;20057;-67
2023/10/27 00:59:50;;;;;;;35.78;21.27;;;12.90;83.60;;;;;;5074161;28;20042;-67
2023/10/27 01:02:18;;;;;;;40.55;22.40;;;12.90;83.70;;;;;;5108207;28;20104;-67
2023/10/27 01:04:45;;;;;;;38.85;22.73;;;12.90;83.70;;;;;;5101774;28;20115;-67
2023/10/27 01:07:11;;;;;;;37.67;22.02;;;12.90;83.70;;;;;;5106366;28;20403;-67
2023/10/27 01:09:37;;;;;;;37.38;20.60;;;12.90;83.80;;;;;;5095452;28;20040;-67
2023/10/27 01:12:03;;;;;;;36.30;20.92;;;12.90;83.80;;;;;;5109140;28;20448;-67
2023/10/27 01:14:29;;;;;;;39.15;23.27;;;12.90;83.80;;;;;;5098869;28;20352;-67
2023/10/27 01:16:56;;;;;;;35.83;21.95;;;12.90;83.90;;;;;;5114098;28;20477;-67
2023/10/27 01:19:22;;;;;;;37.85;22.33;;;12.90;83.90;;;;;;5095175;28;20327;-67
2023/10/27 01:21:49;;;;;;;35.08;20.63;;;12.80;83.90;;;;;;5104727;28;20028;-68
2023/10/27 01:24:14;;;;;;;35.95;20.73;;;12.80;84.00;;;;;;5100717;28;20020;-67
2023/10/27 01:26:40;;;;;;;38.15;22.65;;;12.90;84.10;;;;;;5104316;28;20063;-67
2023/10/27 01:29:06;;;;;;;38.83;22.42;;;12.80;84.00;;;;;;5094030;28;20432;-67
2023/10/27 01:31:32;;;;;;;38.55;22.52;;;12.80;84.10;;;;;;5113868;28;20063;-67
2023/10/27 01:33:57;;;;;;;36.30;21.25;;;12.80;84.10;;;;;;5103244;28;20357;-67
2023/10/27 01:36:23;;;;;;;40.80;22.63;;;12.80;84.10;;;;;;5091222;28;20031;-67
2023/10/27 01:38:49;;;;;;;36.85;21.83;;;12.80;84.10;;;;;;5100139;28;20089;-67
2023/10/27 01:41:14;;;;;;;38.17;22.40;;;12.80;84.20;;;;;;5099763;28;20032;-68
2023/10/27 01:43:40;;;;;;;38.72;22.63;;;12.80;84.20;;;;;;5106882;28;20027;-67
2023/10/27 01:46:06;;;;;;;36.65;22.15;;;12.80;84.30;;;;;;5077019;28;20067;-67
2023/10/27 01:48:32;;;;;;;39.83;23.73;;;12.80;84.30;;;;;;5108912;28;20058;-68
2023/10/27 01:50:58;;;;;;;36.97;22.02;;;12.80;84.30;;;;;;5093421;28;20467;-67
2023/10/27 01:53:24;;;;;;;37.38;23.00;;;12.90;84.40;;;;;;5095961;28;20024;-67
2023/10/27 01:55:49;;;;;;;38.33;22.13;;;12.90;84.40;;;;;;5103748;28;20386;-67
2023/10/27 01:58:15;;;;;;;42.15;24.88;;;12.90;84.40;;;;;;5106215;28;20028;-67
2023/10/27 02:00:41;;;;;;;37.60;22.73;;;12.90;84.40;;;;;;5076096;28;20017;-67
2023/10/27 02:03:07;;;;;;;42.33;24.45;;;12.80;84.40;;;;;;5075067;28;20040;-67
2023/10/27 02:05:33;;;;;;;40.17;23.70;;;12.90;84.50;;;;;;5078009;28;20032;-67
2023/10/27 02:08:00;;;;;;;39.88;23.60;;;12.90;84.50;;;;;;5095079;28;20089;-67
2023/10/27 02:10:25;;;;;;;44.50;23.75;;;12.90;84.60;;;;;;5080528;28;20028;-67
2023/10/27 02:12:51;;;;;;;38.58;23.55;;;12.90;84.60;;;;;;5079594;28;20162;-68
2023/10/27 02:15:18;;;;;;;37.15;22.88;;;12.90;84.60;;;;;;5068276;28;20056;-67
2023/10/27 02:17:44;;;;;;;39.28;22.83;;;12.90;84.60;;;;;;5089385;28;20031;-67
2023/10/27 02:20:10;;;;;;;44.53;24.33;;;12.90;84.60;;;;;;5085069;28;20373;-67
2023/10/27 02:22:39;;;;;;;39.38;22.00;;;12.90;84.60;;;;;;5077167;28;20116;-67
2023/10/27 02:25:06;;;;;;;37.58;22.67;;;12.90;84.70;;;;;;5085136;28;20475;-67
2023/10/27 02:27:31;;;;;;;37.78;22.58;;;12.90;84.70;;;;;;5092655;28;20016;-67
2023/10/27 02:29:57;;;;;;;36.70;22.63;;;12.90;84.70;;;;;;5090631;28;20043;-68
2023/10/27 02:32:24;;;;;;;38.67;21.98;;;12.90;84.80;;;;;;5084971;28;20024;-67
2023/10/27 02:34:49;;;;;;;38.78;22.27;;;12.90;84.80;;;;;;5094923;28;20050;-67
2023/10/27 02:37:15;;;;;;;37.58;21.63;;;12.90;85.40;;;;;;5087156;28;20482;-68
2023/10/27 02:39:41;;;;;;;37.20;21.77;;;12.90;84.80;;;;;;5087148;28;20471;-67
2023/10/27 02:42:07;;;;;;;40.22;23.05;;;12.90;84.90;;;;;;5081070;28;20032;-68
2023/10/27 02:44:33;;;;;;;38.67;22.10;;;12.90;84.90;;;;;;5090934;28;20028;-68
2023/10/27 02:46:59;;;;;;;37.95;21.73;;;12.90;84.90;;;;;;5086183;28;20033;-67
2023/10/27 02:49:24;;;;;;;35.95;21.65;;;12.90;84.90;;;;;;5086670;28;20036;-68
2023/10/27 02:51:50;;;;;;;36.17;22.20;;;12.90;85.00;;;;;;5077081;28;20017;-68
2023/10/27 02:54:16;;;;;;;37.53;21.75;;;12.90;85.00;;;;;;5087721;28;20085;-67
2023/10/27 02:56:41;;;;;;;32.38;20.58;;;12.90;85.00;;;;;;5088143;28;20158;-68
2023/10/27 02:59:09;;;;;;;36.20;20.65;;;12.90;85.00;;;;;;5083377;28;20085;-67
2023/10/27 03:01:34;;;;;;;32.75;20.63;;;12.90;85.00;;;;;;5081403;28;20047;-67
2023/10/27 03:04:01;;;;;;;31.90;19.30;;;12.90;85.00;;;;;;5083585;28;20016;-68
2023/10/27 03:06:27;;;;;;;33.63;20.45;;;12.90;85.10;;;;;;5090318;28;20368;-67
2023/10/27 03:08:53;;;;;;;32.95;19.73;;;12.90;85.10;;;;;;5082107;28;20028;-68
2023/10/27 03:11:19;;;;;;;32.60;19.92;;;12.90;85.10;;;;;;5081544;28;20020;-67
2023/10/27 03:13:44;;;;;;;35.63;21.38;;;12.90;85.10;;;;;;5080495;28;20472;-67
2023/10/27 03:16:10;;;;;;;33.00;20.10;;;12.90;85.10;;;;;;5089846;28;20028;-67
2023/10/27 03:18:36;;;;;;;34.42;19.73;;;12.90;85.20;;;;;;5080984;28;20031;-67
2023/10/27 03:21:05;;;;;;;32.22;20.15;;;12.90;85.20;;;;;;5086381;28;20020;-67
2023/10/27 03:23:31;;;;;;;35.75;19.77;;;12.90;85.20;;;;;;5075988;28;20029;-68
2023/10/27 03:25:58;;;;;;;32.75;19.60;;;12.90;85.20;;;;;;5088571;28;20456;-67
2023/10/27 03:28:24;;;;;;;33.20;20.27;;;12.90;85.20;;;;;;5079160;28;20511;-67
2023/10/27 03:30:50;;;;;;;37.50;21.05;;;12.90;85.20;;;;;;5087357;28;20028;-67
2023/10/27 03:33:17;;;;;;;32.47;20.25;;;12.90;85.20;;;;;;5078557;28;20461;-68
2023/10/27 03:35:44;;;;;;;32.10;19.17;;;12.90;85.30;;;;;;5088249;28;20039;-68
2023/10/27 03:38:10;;;;;;;30.50;19.83;;;12.90;85.30;;;;;;5078114;28;20082;-68
2023/10/27 03:40:41;;;;;;;32.00;19.33;;;12.90;85.90;;;;;;5089810;28;20066;-67
2023/10/27 03:43:08;;;;;;;33.35;18.50;;;12.90;85.30;;;;;;5076311;28;20096;-68
2023/10/27 03:45:34;;;;;;;32.75;19.90;;;12.90;85.30;;;;;;5088535;28;20115;-68
2023/10/27 03:48:00;;;;;;;31.10;18.65;;;13.00;85.30;;;;;;5087162;28;20063;-67
2023/10/27 03:50:26;;;;;;;34.75;18.92;;;13.00;85.30;;;;;;5071419;28;20020;-68
2023/10/27 03:52:52;;;;;;;35.17;21.25;;;12.90;85.30;;;;;;5086119;28;20025;-67
2023/10/27 03:55:18;;;;;;;30.92;17.80;;;13.00;85.30;;;;;;5079002;28;20024;-68
2023/10/27 03:57:44;;;;;;;33.78;18.40;;;13.00;85.40;;;;;;5081585;28;20087;-68
2023/10/27 04:00:10;;;;;;;27.77;17.80;;;12.90;85.30;;;;;;5066293;28;20040;-67
2023/10/27 04:02:39;;;;;;;30.48;18.98;;;13.00;85.40;;;;;;5091802;28;20048;-68
2023/10/27 04:05:04;;;;;;;29.40;16.80;;;13.00;85.40;;;;;;5091447;28;20072;-68
2023/10/27 04:07:30;;;;;;;29.52;18.23;;;13.00;85.50;;;;;;5093907;28;20146;-67
2023/10/27 04:09:56;;;;;;;31.38;18.25;;;12.90;85.40;;;;;;5092859;28;20118;-68
2023/10/27 04:12:22;;;;;;;25.38;14.60;;;13.00;85.50;;;;;;5093898;28;20364;-67
2023/10/27 04:14:48;;;;;;;27.58;15.90;;;13.00;85.50;;;;;;5091033;28;20024;-68
2023/10/27 04:17:14;;;;;;;26.65;15.27;;;13.00;85.40;;;;;;5095556;28;20035;-68
2023/10/27 04:19:43;;;;;;;24.23;15.40;;;13.00;85.50;;;;;;5093284;28;20024;-67
2023/10/27 04:22:09;;;;;;;27.73;15.70;;;13.00;85.50;;;;;;5087845;28;20103;-67
2023/10/27 04:24:35;;;;;;;25.33;14.40;;;13.00;85.50;;;;;;5086041;28;20028;-68
2023/10/27 04:27:01;;;;;;;25.58;15.07;;;13.00;85.50;;;;;;5091532;28;20065;-68
2023/10/27 04:29:26;;;;;;;23.48;14.77;;;12.90;85.50;;;;;;5090346;28;20032;-67
2023/10/27 04:31:52;;;;;;;26.17;15.27;;;12.90;85.50;;;;;;5074669;28;20028;-67
2023/10/27 04:34:18;;;;;;;22.98;14.88;;;12.90;85.50;;;;;;5089955;28;20101;-68
2023/10/27 04:36:44;;;;;;;22.35;13.90;;;13.00;85.60;;;;;;5091755;28;20020;-67
2023/10/27 04:39:10;;;;;;;20.33;13.18;;;12.90;85.50;;;;;;5089457;28;20453;-67
2023/10/27 04:41:36;;;;;;;23.52;13.50;;;12.90;85.50;;;;;;5090694;28;20028;-67
2023/10/27 04:44:02;;;;;;;20.25;12.55;;;12.90;85.50;;;;;;5089805;28;20026;-67
2023/10/27 04:46:27;;;;;;;20.45;12.05;;;13.00;85.60;;;;;;5071506;28;20027;-67
2023/10/27 04:48:55;;;;;;;21.80;13.15;;;13.00;85.60;;;;;;5089159;28;20035;-68
2023/10/27 04:51:23;;;;;;;20.52;12.20;;;12.90;85.50;;;;;;5086879;28;20030;-67
2023/10/27 04:53:49;;;;;;;19.73;12.32;;;12.90;85.60;;;;;;5091668;28;20035;-67
2023/10/27 04:56:16;;;;;;;17.67;11.45;;;12.90;85.60;;;;;;5087041;28;20029;-68
2023/10/27 04:58:42;;;;;;;18.95;11.38;;;12.90;85.60;;;;;;5088833;28;20356;-68
2023/10/27 05:01:08;;;;;;;18.52;10.93;;;12.90;85.60;;;;;;5074006;28;20039;-68
2023/10/27 05:03:34;;;;;;;18.27;11.00;;;12.90;85.60;;;;;;5072814;28;20075;-69
2023/10/27 05:06:10;;;;;;;16.33;10.00;;;12.90;85.60;;;;;;5078942;28;20426;-68
2023/10/27 05:08:36;;;;;;;17.20;9.88;;;13.00;85.60;;;;;;5086659;28;20081;-68
2023/10/27 05:11:03;;;;;;;18.40;10.75;;;13.00;85.50;;;;;;5082085;28;20151;-69
2023/10/27 05:13:29;;;;;;;17.60;10.30;;;13.00;85.40;;;;;;5086646;28;20157;-68
2023/10/27 05:15:55;;;;;;;16.38;9.65;;;13.00;85.40;;;;;;5087562;28;20035;-68
2023/10/27 05:18:21;;;;;;;16.02;10.00;;;13.00;85.40;;;;;;5084343;28;20036;-68
2023/10/27 05:20:48;;;;;;;15.63;9.60;;;13.00;85.40;;;;;;5087304;28;20353;-67
2023/10/27 05:23:13;;;;;;;17.27;9.75;;;13.00;85.30;;;;;;5087827;28;20023;-68
2023/10/27 05:25:40;;;;;;;19.27;10.77;;;13.10;85.40;;;;;;5088091;28;20075;-67
2023/10/27 05:28:06;;;;;;;17.35;10.77;;;13.10;85.40;;;;;;5088439;28;20385;-67
2023/10/27 05:30:34;;;;;;;17.10;10.73;;;13.00;85.30;;;;;;5086241;28;20024;-69
2023/10/27 05:33:00;;;;;;;19.27;9.85;;;13.00;85.30;;;;;;5069621;28;20022;-68
2023/10/27 05:35:26;;;;;;;17.20;9.85;;;13.10;85.40;;;;;;5085922;28;20111;-68
2023/10/27 05:37:52;;;;;;;16.25;10.43;;;13.10;85.50;;;;;;5084475;28;20524;-70
2023/10/27 05:40:18;;;;;;;29.52;11.50;;;13.10;85.50;;;;;;5084620;28;20032;-68
2023/10/27 05:42:44;;;;;;;17.80;10.60;;;13.00;85.50;;;;;;5085057;28;20024;-67
2023/10/27 05:45:13;;;;;;;17.30;10.50;;;13.00;85.60;;;;;;5084960;28;20039;-66
2023/10/27 05:47:40;;;;;;;16.38;10.10;;;13.00;85.60;;;;;;5081836;28;20021;-68
2023/10/27 05:50:07;;;;;;;15.13;9.95;;;13.00;85.60;;;;;;5088011;28;20575;-67
2023/10/27 05:52:33;;;;;;;14.48;9.63;;;13.00;85.70;;;;;;5088788;28;20114;-67
2023/10/27 05:54:59;;;;;;;16.05;9.68;;;13.00;85.70;;;;;;5089123;28;20058;-67
2023/10/27 05:57:25;;;;;;;18.10;10.65;;;13.00;85.70;;;;;;5088408;28;20354;-67
2023/10/27 05:59:50;;;;;;;16.85;9.27;;;13.00;85.70;;;;;;5087198;28;20458;-67
2023/10/27 06:02:16;;;;;;;15.55;10.10;;;13.00;85.80;;;;;;5087065;28;20046;-69
2023/10/27 06:04:42;;;;;;;16.45;9.93;;;13.00;85.90;;;;;;5088390;28;20031;-66
2023/10/27 06:07:08;;;;;;;14.90;10.00;;;13.00;85.80;;;;;;5087366;28;21254;-73
2023/10/27 06:09:35;;;;;;;14.45;9.13;;;13.00;85.90;;;;;;5087211;28;20101;-67
2023/10/27 06:12:01;;;;;;;15.73;9.20;;;13.00;85.90;;;;;;5101710;28;20032;-72
2023/10/27 06:14:27;;;;;;;15.07;9.00;;;13.00;85.90;;;;;;5094487;28;20050;-68
2023/10/27 06:16:53;;;;;;;14.57;8.63;;;13.00;85.90;;;;;;5088562;28;20036;-67
2023/10/27 06:19:20;;;;;;;13.40;8.38;;;13.00;85.90;;;;;;5087221;28;20032;-68
2023/10/27 06:21:47;;;;;;;14.55;8.13;;;12.90;85.90;;;;;;5090442;28;20027;-72
2023/10/27 06:24:13;;;;;;;13.52;7.97;;;13.00;86.00;;;;;;5092574;28;20453;-69
2023/10/27 06:26:39;;;;;;;14.82;8.52;;;12.90;85.90;;;;;;5087176;28;20032;-69
2023/10/27 06:29:05;;;;;;;15.02;9.52;;;12.90;85.90;;;;;;5091523;28;20028;-71
2023/10/27 06:31:30;;;;;;;14.63;8.60;;;13.00;86.00;;;;;;5093417;28;20031;-67
2023/10/27 06:33:56;;;;;;;13.35;8.52;;;12.90;85.90;;;;;;5093083;28;20487;-70
2023/10/27 06:36:22;;;;;;;14.18;8.68;;;12.90;85.90;;;;;;5091435;28;20058;-73
2023/10/27 06:38:48;;;;;;;13.60;9.05;;;13.00;86.00;;;;;;5089926;28;20027;-67
2023/10/27 06:41:13;;;;;;;14.60;9.75;;;12.90;85.90;;;;;;5101906;28;20465;-69
2023/10/27 06:43:39;;;;;;;14.10;8.70;;;12.90;86.00;;;;;;5080368;28;20345;-69
2023/10/27 06:46:05;;;;;;;14.75;8.80;;;12.90;85.90;;;;;;5092845;28;20365;-69
2023/10/27 06:48:31;;;;;;;14.73;9.13;;;12.90;85.90;;;;;;5091112;28;20036;-69
2023/10/27 06:50:56;;;;;;;14.15;8.88;;;12.90;86.00;;;;;;5090999;28;20089;-69
2023/10/27 06:53:22;;;;;;;12.85;8.73;;;12.90;86.00;;;;;;5089787;28;20028;-69
2023/10/27 06:55:51;;;;;;;13.48;8.60;;;12.90;86.00;;;;;;5086390;28;20036;-68
2023/10/27 06:58:16;;;;;;;12.45;7.88;;;12.90;86.00;;;;;;5083933;28;20042;-66
2023/10/27 07:00:42;;;;;;;12.98;8.57;;;12.90;86.00;;;;;;5087902;28;20032;-66
2023/10/27 07:03:08;;;;;;;14.05;8.95;;;12.90;86.00;;;;;;5089658;28;20101;-68
2023/10/27 07:05:34;;;;;;;14.77;9.82;;;12.90;86.00;;;;;;5097113;28;20078;-68
2023/10/27 07:07:59;;;;;;;14.63;8.68;;;12.90;86.00;;;;;;5090511;28;20035;-68
2023/10/27 07:10:25;;;;;;;13.25;8.48;;;12.90;86.00;;;;;;5090950;28;20024;-67
2023/10/27 07:12:51;;;;;;;13.82;9.05;;;12.90;86.00;;;;;;5090730;28;20024;-67
2023/10/27 07:15:19;;;;;;;13.48;8.52;;;12.90;86.00;;;;;;5088624;28;20016;-68
2023/10/27 07:17:45;;;;;;;13.70;9.07;;;12.90;86.00;;;;;;5086402;28;20341;-67
2023/10/27 07:20:11;;;;;;;13.80;7.90;;;12.90;86.00;;;;;;5079135;28;20058;-67
2023/10/27 07:22:37;;;;;;;15.60;8.43;;;12.90;86.00;;;;;;5094000;28;20028;-67
2023/10/27 07:25:04;;;;;;;14.20;8.20;;;12.90;86.00;;;;;;5094041;28;20028;-67
2023/10/27 07:27:31;;;;;;;14.57;8.63;;;12.90;86.00;;;;;;5089132;28;20095;-67
2023/10/27 07:29:57;;;;;;;13.27;7.95;;;13.00;86.00;;;;;;5089393;28;20043;-67
2023/10/27 07:32:23;;;;;;;16.42;8.85;;;12.90;85.90;;;;;;5098621;28;20036;-68
2023/10/27 07:34:49;;;;;;;13.88;8.73;;;13.00;86.00;;;;;;5089793;28;20024;-68
2023/10/27 07:37:17;;;;;;;14.05;8.85;;;13.00;86.00;;;;;;5089394;28;20112;-69
2023/10/27 07:39:43;;;;;;;14.35;8.63;;;13.00;86.00;;;;;;5073340;28;20460;-69
2023/10/27 07:42:09;;;;;;;15.07;9.40;;;13.00;85.90;;;;;;5063961;28;20020;-68
2023/10/27 07:44:35;;;;;;;13.93;9.00;;;13.00;85.90;;;;;;5084816;28;20016;-68
2023/10/27 07:47:00;;;;;;;13.23;7.93;;;12.90;85.90;;;;;;5088446;28;20020;-68
2023/10/27 07:49:26;;;;;;;14.60;8.88;;;13.00;86.00;;;;;;5088624;28;20036;-69
2023/10/27 07:51:52;;;;;;;13.32;8.75;;;13.00;86.00;;;;;;5088858;28;20028;-69
2023/10/27 07:54:18;;;;;;;13.85;9.15;;;13.00;86.00;;;;;;5086902;28;20110;-69
2023/10/27 07:56:44;;;;;;;14.05;8.75;;;13.00;86.00;;;;;;5090666;28;20031;-68
2023/10/27 07:59:09;;;;;;;14.15;8.93;;;12.90;86.00;;;;;;5086629;28;20114;-67
2023/10/27 08:01:35;;;;;;;13.35;8.75;;;13.00;86.10;;;;;;5100773;28;20028;-67
2023/10/27 08:04:03;;;;;;;12.73;8.02;;;13.00;86.00;;;;;;5089361;28;20016;-68
2023/10/27 08:06:29;;;;;;;13.40;8.93;;;13.00;86.00;;;;;;5068011;28;20037;-68
2023/10/27 08:08:55;;;;;;;13.90;9.02;;;13.00;86.00;;;;;;5088416;28;20028;-68
2023/10/27 08:11:21;;;;;;;12.35;8.02;;;13.00;86.00;;;;;;5090398;28;20020;-68
2023/10/27 08:13:47;;;;;;;13.48;8.57;;;13.00;86.00;;;;;;5091046;28;20039;-68
2023/10/27 08:16:16;;;;;;;14.15;9.07;;;13.00;86.00;;;;;;5087863;28;20036;-68
2023/10/27 08:18:42;;;;;;;16.08;9.90;;;13.10;86.00;;;;;;5088135;28;20120;-68
2023/10/27 08:21:10;;;;;;;13.88;8.98;;;13.00;86.00;;;;;;5089977;28;20016;-67
2023/10/27 08:23:36;;;;;;;14.25;8.85;;;13.10;86.00;;;;;;5085845;28;20052;-66
2023/10/27 08:26:02;;;;;;;14.90;9.98;;;13.10;86.00;;;;;;5088026;28;20465;-66
2023/10/27 08:28:28;;;;;;;13.13;8.48;;;13.00;85.90;;;;;;5090331;28;20452;-67
2023/10/27 08:30:56;;;;;;;13.60;9.32;;;13.10;86.00;;;;;;5064921;28;20108;-68
2023/10/27 08:33:23;;;;;;;14.38;9.15;;;13.00;85.90;;;;;;5078880;28;20141;-68
2023/10/27 08:35:48;;;;;;;13.90;9.55;;;13.10;86.00;;;;;;5088994;28;20027;-67
2023/10/27 08:38:14;;;;;;;13.77;8.73;;;13.10;86.00;;;;;;5073102;28;20035;-67
2023/10/27 08:40:42;;;;;;;14.07;9.45;;;13.10;86.00;;;;;;5089103;28;20024;-66
2023/10/27 08:43:08;;;;;;;13.57;8.35;;;13.10;86.00;;;;;;5089047;28;20035;-67
2023/10/27 08:45:35;;;;;;;14.65;9.50;;;13.10;86.00;;;;;;5089267;28;20024;-67
2023/10/27 08:48:01;;;;;;;14.23;8.85;;;13.10;86.00;;;;;;5070837;28;20425;-67
2023/10/27 08:50:31;;;;;;;15.38;9.80;;;13.10;86.00;;;;;;5088655;28;20028;-67
2023/10/27 08:52:57;;;;;;;14.30;9.15;;;13.10;86.00;;;;;;5091544;28;20043;-68
2023/10/27 08:55:25;;;;;;;13.25;9.15;;;13.10;86.00;;;;;;5088761;28;20028;-69
2023/10/27 08:57:55;;;;;;;14.30;9.30;;;13.10;86.00;;;;;;5088816;28;20024;-69
2023/10/27 09:00:21;;;;;;;14.52;9.02;;;13.10;86.00;;;;;;5088977;28;20028;-67
2023/10/27 09:02:47;;;;;;;14.88;9.77;;;13.10;85.90;;;;;;5084300;28;20483;-68
2023/10/27 09:05:14;;;;;;;13.27;8.55;;;13.20;86.00;;;;;;5089224;28;20453;-68
2023/10/27 09:07:40;;;;;;;13.75;9.52;;;13.20;86.00;;;;;;5088320;28;20042;-69
2023/10/27 09:10:06;;;;;;;14.15;9.30;;;13.10;85.90;;;;;;5088626;28;20035;-69
2023/10/27 09:12:36;;;;;;;11.70;7.70;;;13.20;85.90;;;;;;5086529;28;20020;-68
2023/10/27 09:15:12;;;;;;;13.07;8.10;;;13.20;85.90;;;;;;5086193;28;20036;-68
2023/10/27 09:17:56;;;;;;;12.65;8.30;;;13.20;86.50;;;;;;5079722;28;20038;-68
2023/10/27 09:20:26;;;;;;;11.57;7.63;;;13.20;85.90;;;;;;5064067;28;20445;-68
2023/10/27 09:23:09;;;;;;;11.80;7.45;;;13.20;85.90;;;;;;5088875;28;20042;-68
2023/10/27 09:25:38;;;;;;;10.73;7.03;;;13.20;85.90;;;;;;5086526;28;20501;-69
2023/10/27 09:28:06;;;;;;;10.50;6.75;;;13.20;85.90;;;;;;5086048;28;20334;-68
2023/10/27 09:30:40;;;;;;;11.90;7.65;;;13.20;85.80;;;;;;5086065;28;20028;-69
2023/10/27 09:33:16;;;;;;;10.98;7.13;;;13.20;85.80;;;;;;5086651;28;20034;-69
2023/10/27 09:35:43;;;;;;;12.38;7.47;;;13.20;85.80;;;;;;5087563;28;20035;-69
2023/10/27 09:38:09;;;;;;;11.65;7.90;;;13.20;85.80;;;;;;5088583;28;20027;-69
2023/10/27 09:40:37;;;;;;;12.30;8.27;;;13.20;85.80;;;;;;5089372;28;20337;-69
2023/10/27 09:43:06;;;;;;;12.68;7.97;;;13.30;85.80;;;;;;5091149;28;20035;-69
2023/10/27 09:45:35;;;;;;;12.65;7.80;;;13.30;85.80;;;;;;5088955;28;20034;-69
2023/10/27 09:48:03;;;;;;;12.40;7.75;;;13.30;85.80;;;;;;5089421;28;20039;-69
2023/10/27 09:50:30;;;;;;;12.75;8.32;;;13.30;85.70;;;;;;5091942;28;20086;-69
2023/10/27 09:53:01;;;;;;;12.25;7.78;;;13.30;85.60;;;;;;5088575;28;20055;-70
2023/10/27 09:55:31;;;;;;;13.93;8.57;;;13.30;85.60;;;;;;5081809;28;20036;-69
2023/10/27 09:57:59;;;;;;;12.55;8.88;;;13.30;85.50;;;;;;5084107;28;20052;-69
2023/10/27 10:00:29;;;;;;;13.02;8.95;;;13.30;85.50;;;;;;5086055;28;20393;-69
2023/10/27 10:02:56;;;;;;;12.52;8.57;;;13.30;85.50;;;;;;5087150;28;20040;-69
2023/10/27 10:05:23;;;;;;;13.10;8.73;;;13.30;85.60;;;;;;5085794;28;20075;-69
2023/10/27 10:07:52;;;;;;;21.17;9.55;;;13.30;85.60;;;;;;5087785;28;20035;-69
2023/10/27 10:10:21;;;;;;;14.73;9.93;;;13.30;85.70;;;;;;5077147;28;20081;-69
2023/10/27 10:13:14;;;;;;;15.00;9.32;;;13.30;85.80;;;;;;5082831;28;20077;-67
2023/10/27 10:15:42;;;;;;;15.02;9.80;;;13.30;85.90;;;;;;5083371;28;20054;-68
2023/10/27 10:18:29;;;;;;;14.25;9.20;;;13.30;85.80;;;;;;5085819;28;20452;-69
2023/10/27 10:20:56;;;;;;;13.57;9.52;;;13.30;85.90;;;;;;5080834;28;20052;-69
2023/10/27 10:23:48;;;;;;;15.80;9.95;;;13.30;85.90;;;;;;5086603;28;20028;-70
2023/10/27 10:26:14;;;;;;;;;;;13.30;85.90;;;;;;5080779;28;20074;-69
2023/10/27 10:28:41;;;;;;;13.40;8.27;;;13.30;85.90;;;;;;5068911;28;19951;-69
2023/10/27 10:31:07;;;;;;;13.23;8.93;;;13.30;85.80;;;;;;5084208;28;20372;-68
2023/10/27 10:33:56;;;;;;;13.77;9.10;;;13.30;85.90;;;;;;5082027;28;20032;-68
2023/10/27 10:36:22;;;;;;;13.02;8.02;;;13.40;85.90;;;;;;5082654;28;20036;-68
2023/10/27 10:39:00;;;;;;;12.98;8.95;;;13.40;85.90;;;;;;5088233;28;20028;-68
2023/10/27 10:41:41;;;;;;;13.02;8.95;;;13.40;86.00;;;;;;5089646;28;20472;-68
2023/10/27 10:44:12;;;;;;;12.23;8.98;;;13.40;85.90;;;;;;5090928;28;20433;-68
2023/10/27 10:46:37;;;;;;;10.98;7.78;;;13.40;85.90;;;;;;5089964;28;20115;-68
2023/10/27 10:49:03;;;;;;;11.85;8.05;;;13.50;85.90;;;;;;5088106;28;20135;-68
2023/10/27 10:51:30;;;;;;;12.95;8.48;;;13.50;86.00;;;;;;5089239;28;20700;-67
2023/10/27 10:53:56;;;;;;;12.40;8.85;;;13.50;85.90;;;;;;5087244;28;20434;-73
2023/10/27 10:56:23;;;;;;;13.73;8.93;;;13.50;85.90;;;;;;5094168;28;20024;-74
2023/10/27 10:58:49;;;;;;;13.98;9.05;;;13.50;85.90;;;;;;5069254;28;20425;-73
2023/10/27 11:01:16;;;;;;;13.23;8.73;;;13.50;85.80;;;;;;5090733;28;20035;-69
2023/10/27 11:03:54;;;;;;;12.02;8.60;;;13.60;85.90;;;;;;5092191;28;20051;-69
2023/10/27 11:06:27;;;;;;;11.65;8.00;;;13.60;85.90;;;;;;5092348;28;20044;-72
2023/10/27 11:08:53;;;;;;;11.77;8.65;;;13.60;85.80;;;;;;5091234;28;20149;-74
2023/10/27 11:11:20;;;;;;;11.75;7.90;;;13.60;85.80;;;;;;5094461;28;20495;-71
2023/10/27 11:13:53;;;;;;;13.13;8.88;;;13.60;85.70;;;;;;5092733;28;20020;-69
2023/10/27 11:16:22;;;;;;;11.75;7.82;;;13.70;85.80;;;;;;5090508;28;20451;-69
2023/10/27 11:18:59;;;;;;;12.25;8.80;;;13.70;85.80;;;;;;5090410;28;20131;-70
2023/10/27 11:21:28;;;;;;;12.18;8.38;;;13.70;85.80;;;;;;5087789;28;20028;-70
2023/10/27 11:23:54;;;;;;;12.70;8.65;;;13.70;85.80;;;;;;5098937;28;20101;-70
2023/10/27 11:26:25;;;;;;;11.98;8.07;;;13.70;85.70;;;;;;5087170;28;20525;-70
2023/10/27 11:28:54;;;;;;;12.88;9.00;;;13.70;85.80;;;;;;5086814;28;20452;-70
2023/10/27 11:31:23;;;;;;;12.50;8.35;;;13.80;85.80;;;;;;5078115;28;20111;-70
2023/10/27 11:33:56;;;;;;;12.15;8.35;;;13.70;85.70;;;;;;5088617;28;20034;-69
2023/10/27 11:36:23;;;;;;;12.32;7.90;;;13.70;85.70;;;;;;5078124;28;20039;-68
2023/10/27 11:38:48;;;;;;;12.95;8.25;;;13.70;85.70;;;;;;5084834;28;20073;-69
2023/10/27 11:41:14;;;;;;;12.10;8.07;;;13.70;85.70;;;;;;5088021;28;20115;-68
2023/10/27 11:43:40;;;;;;;12.57;8.40;;;13.70;85.70;;;;;;5086905;28;20117;-70
2023/10/27 11:46:17;;;;;;;12.88;8.57;;;13.70;85.70;;;;;;5086598;28;20130;-70
2023/10/27 11:48:44;;;;;;;11.88;7.85;;;13.80;85.80;;;;;;5093773;28;20027;-68
2023/10/27 11:51:11;;;;;;;10.40;7.25;;;13.80;85.80;;;;;;5084817;28;20028;-68
2023/10/27 11:53:55;;;;;;;11.25;7.30;;;13.80;85.80;;;;;;5086534;28;20107;-68
2023/10/27 11:56:21;;;;;;;11.43;6.82;;;13.80;85.80;;;;;;5087567;28;20035;-68
2023/10/27 11:58:47;;;;;;;10.77;6.85;;;13.80;85.80;;;;;;5088950;28;20039;-69
2023/10/27 12:01:13;;;;;;;10.90;6.40;;;13.80;85.80;;;;;;5085151;28;20031;-69
2023/10/27 12:03:39;;;;;;;11.13;6.63;;;13.80;85.80;;;;;;5084350;28;20042;-69
2023/10/27 12:06:05;;;;;;;10.40;6.07;;;13.80;85.80;;;;;;5085486;28;20128;-70
2023/10/27 12:08:31;;;;;;;9.07;5.50;;;13.80;85.70;;;;;;5089759;28;20040;-69
2023/10/27 12:10:56;;;;;;;9.82;5.85;;;13.90;85.70;;;;;;5085783;28;20047;-71
2023/10/27 12:13:23;;;;;;;10.00;5.97;;;13.80;85.60;;;;;;5087390;28;20038;-69
2023/10/27 12:15:49;;;;;;;8.43;5.03;;;13.80;85.60;;;;;;5088457;28;20032;-68
2023/10/27 12:18:16;;;;;;;10.23;5.47;;;13.80;85.60;;;;;;5086456;28;20016;-71
2023/10/27 12:20:42;;;;;;;9.93;5.65;;;13.80;85.60;;;;;;5086642;28;20023;-71
2023/10/27 12:23:09;;;;;;;9.35;6.10;;;13.80;85.70;;;;;;5085649;28;20279;-71
2023/10/27 12:25:35;;;;;;;9.40;5.60;;;13.80;85.80;;;;;;5076430;28;20024;-71
2023/10/27 12:28:02;;;;;;;9.63;5.65;;;13.80;85.80;;;;;;5087411;28;20119;-72
2023/10/27 12:30:28;;;;;;;10.00;4.95;;;13.80;85.80;;;;;;5069158;28;20028;-72
2023/10/27 12:32:54;;;;;;;9.27;5.10;;;13.80;85.80;;;;;;5085277;28;20058;-71